createdAt,value
2022-11-16T00:00:13.000Z,6.57
2022-11-16T00:01:13.000Z,6.57
2022-11-16T00:02:13.000Z,6.55
2022-11-16T00:03:13.000Z,6.57
2022-11-16T00:04:13.000Z,6.54
2022-11-16T00:05:13.000Z,6.53
2022-11-16T00:06:13.000Z,6.51
2022-11-16T00:07:13.000Z,6.48
2022-11-16T00:08:13.000Z,6.45
2022-11-16T00:09:13.000Z,6.45
2022-11-16T00:10:13.000Z,6.48
2022-11-16T00:11:13.000Z,6.46
2022-11-16T00:12:13.000Z,6.43
2022-11-16T00:13:13.000Z,6.42
2022-11-16T00:14:13.000Z,6.38
2022-11-16T00:15:13.000Z,6.35
2022-11-16T00:16:13.000Z,6.33
2022-11-16T00:17:13.000Z,6.32
2022-11-16T00:18:13.000Z,6.25
2022-11-16T00:19:13.000Z,6.24
2022-11-16T00:20:13.000Z,6.19
2022-11-16T00:21:13.000Z,6.20
2022-11-16T00:22:13.000Z,6.19
2022-11-16T00:23:13.000Z,6.19
2022-11-16T00:24:13.000Z,6.17
2022-11-16T00:25:13.000Z,6.21
2022-11-16T00:26:13.000Z,6.14
2022-11-16T00:27:13.000Z,6.14
2022-11-16T00:28:13.000Z,6.20
2022-11-16T00:29:13.000Z,6.16
2022-11-16T00:30:13.000Z,6.17
2022-11-16T00:31:13.000Z,6.21
2022-11-16T00:32:13.000Z,6.19
2022-11-16T00:33:13.000Z,6.16
2022-11-16T00:34:13.000Z,6.16
2022-11-16T00:35:13.000Z,6.16
2022-11-16T00:36:13.000Z,6.16
2022-11-16T00:37:13.000Z,6.16
2022-11-16T00:38:13.000Z,6.16
2022-11-16T00:39:13.000Z,6.11
2022-11-16T00:40:13.000Z,6.11
2022-11-16T00:41:13.000Z,6.05
2022-11-16T00:42:13.000Z,6.10
2022-11-16T00:43:13.000Z,6.08
2022-11-16T00:44:13.000Z,6.10
2022-11-16T00:45:13.000Z,6.05
2022-11-16T00:46:13.000Z,6.08
2022-11-16T00:47:13.000Z,6.01
2022-11-16T00:48:13.000Z,6.02
2022-11-16T00:49:13.000Z,6.03
2022-11-16T00:50:13.000Z,5.96
2022-11-16T00:51:13.000Z,5.95
2022-11-16T00:52:13.000Z,5.95
2022-11-16T00:53:13.000Z,5.93
2022-11-16T00:54:13.000Z,5.98
2022-11-16T00:55:13.000Z,5.93
2022-11-16T00:56:13.000Z,5.93
2022-11-16T00:57:13.000Z,5.92
2022-11-16T00:58:13.000Z,5.85
2022-11-16T00:59:13.000Z,5.85
2022-11-16T01:00:13.000Z,5.87
2022-11-16T01:01:13.000Z,5.84
2022-11-16T01:02:13.000Z,5.87
2022-11-16T01:03:13.000Z,5.84
2022-11-16T01:04:13.000Z,5.81
2022-11-16T01:05:13.000Z,5.80
2022-11-16T01:06:13.000Z,5.78
2022-11-16T01:07:13.000Z,5.78
2022-11-16T01:08:13.000Z,5.77
2022-11-16T01:09:12.000Z,5.77
2022-11-16T01:10:12.000Z,5.77
2022-11-16T01:11:12.000Z,5.75
2022-11-16T01:12:12.000Z,5.69
2022-11-16T01:13:12.000Z,5.74
2022-11-16T01:14:12.000Z,5.74
2022-11-16T01:15:12.000Z,5.74
2022-11-16T01:16:12.000Z,5.70
2022-11-16T01:17:12.000Z,5.73
2022-11-16T01:18:12.000Z,5.74
2022-11-16T01:19:12.000Z,5.73
2022-11-16T01:20:12.000Z,5.74
2022-11-16T01:21:12.000Z,5.70
2022-11-16T01:22:12.000Z,5.73
2022-11-16T01:23:12.000Z,5.67
2022-11-16T01:24:12.000Z,5.66
2022-11-16T01:25:12.000Z,5.67
2022-11-16T01:26:12.000Z,5.66
2022-11-16T01:27:12.000Z,5.60
2022-11-16T01:28:12.000Z,5.63
2022-11-16T01:29:12.000Z,5.59
2022-11-16T01:30:12.000Z,5.67
2022-11-16T01:31:12.000Z,5.58
2022-11-16T01:32:12.000Z,5.56
2022-11-16T01:33:12.000Z,5.59
2022-11-16T01:34:12.000Z,5.59
2022-11-16T01:35:12.000Z,5.55
2022-11-16T01:36:12.000Z,5.55
2022-11-16T01:37:12.000Z,5.49
2022-11-16T01:38:12.000Z,5.55
2022-11-16T01:39:12.000Z,5.52
2022-11-16T01:40:12.000Z,5.47
2022-11-16T01:41:12.000Z,5.48
2022-11-16T01:42:12.000Z,5.47
2022-11-16T01:43:12.000Z,5.44
2022-11-16T01:44:12.000Z,5.41
2022-11-16T01:45:12.000Z,5.42
2022-11-16T01:46:12.000Z,5.45
2022-11-16T01:47:12.000Z,5.41
2022-11-16T01:48:12.000Z,5.38
2022-11-16T01:49:12.000Z,5.41
2022-11-16T01:50:12.000Z,5.40
2022-11-16T01:51:12.000Z,5.38
2022-11-16T01:52:12.000Z,5.38
2022-11-16T01:53:12.000Z,5.35
2022-11-16T01:54:12.000Z,5.42
2022-11-16T01:55:12.000Z,5.37
2022-11-16T01:56:12.000Z,5.32
2022-11-16T01:57:12.000Z,5.37
2022-11-16T01:58:12.000Z,5.38
2022-11-16T01:59:12.000Z,5.37
2022-11-16T02:00:12.000Z,5.35
2022-11-16T02:01:12.000Z,5.33
2022-11-16T02:02:12.000Z,5.37
2022-11-16T02:03:12.000Z,5.35
2022-11-16T02:04:12.000Z,5.38
2022-11-16T02:05:12.000Z,5.38
2022-11-16T02:06:12.000Z,5.38
2022-11-16T02:07:12.000Z,5.40
2022-11-16T02:08:12.000Z,5.38
2022-11-16T02:09:12.000Z,5.35
2022-11-16T02:10:12.000Z,5.38
2022-11-16T02:11:12.000Z,5.37
2022-11-16T02:12:12.000Z,5.35
2022-11-16T02:13:12.000Z,5.37
2022-11-16T02:14:12.000Z,5.38
2022-11-16T02:15:12.000Z,5.33
2022-11-16T02:16:12.000Z,5.30
2022-11-16T02:17:12.000Z,5.30
2022-11-16T02:18:12.000Z,5.32
2022-11-16T02:19:12.000Z,5.24
2022-11-16T02:20:12.000Z,5.27
2022-11-16T02:21:12.000Z,5.24
2022-11-16T02:22:12.000Z,5.26
2022-11-16T02:23:11.000Z,5.20
2022-11-16T02:24:11.000Z,5.22
2022-11-16T02:25:11.000Z,5.23
2022-11-16T02:26:11.000Z,5.22
2022-11-16T02:27:11.000Z,5.15
2022-11-16T02:28:11.000Z,5.22
2022-11-16T02:29:11.000Z,5.17
2022-11-16T02:30:11.000Z,5.17
2022-11-16T02:31:11.000Z,5.12
2022-11-16T02:32:11.000Z,5.15
2022-11-16T02:33:11.000Z,5.12
2022-11-16T02:34:11.000Z,5.09
2022-11-16T02:35:11.000Z,5.14
2022-11-16T02:36:11.000Z,5.08
2022-11-16T02:37:11.000Z,5.11
2022-11-16T02:38:11.000Z,5.09
2022-11-16T02:39:11.000Z,5.09
2022-11-16T02:40:11.000Z,5.11
2022-11-16T02:41:11.000Z,5.09
2022-11-16T02:42:11.000Z,5.11
2022-11-16T02:43:11.000Z,5.15
2022-11-16T02:44:11.000Z,5.06
2022-11-16T02:45:11.000Z,5.11
2022-11-16T02:46:11.000Z,5.11
2022-11-16T02:47:11.000Z,5.11
2022-11-16T02:48:11.000Z,5.09
2022-11-16T02:49:11.000Z,5.12
2022-11-16T02:50:11.000Z,5.11
2022-11-16T02:51:11.000Z,5.08
2022-11-16T02:52:11.000Z,5.08
2022-11-16T02:53:11.000Z,5.12
2022-11-16T02:54:11.000Z,5.06
2022-11-16T02:55:11.000Z,5.06
2022-11-16T02:56:11.000Z,5.06
2022-11-16T02:57:11.000Z,5.05
2022-11-16T02:58:11.000Z,5.06
2022-11-16T02:59:11.000Z,5.05
2022-11-16T03:00:11.000Z,5.06
2022-11-16T03:01:11.000Z,5.02
2022-11-16T03:02:11.000Z,5.02
2022-11-16T03:03:11.000Z,5.05
2022-11-16T03:04:11.000Z,5.02
2022-11-16T03:05:11.000Z,5.02
2022-11-16T03:06:11.000Z,5.04
2022-11-16T03:07:11.000Z,5.04
2022-11-16T03:08:11.000Z,5.02
2022-11-16T03:09:11.000Z,5.01
2022-11-16T03:10:11.000Z,5.05
2022-11-16T03:11:11.000Z,4.99
2022-11-16T03:12:11.000Z,5.02
2022-11-16T03:13:11.000Z,4.96
2022-11-16T03:14:11.000Z,4.94
2022-11-16T03:15:11.000Z,4.93
2022-11-16T03:16:11.000Z,4.96
2022-11-16T03:17:11.000Z,4.91
2022-11-16T03:18:11.000Z,4.90
2022-11-16T03:19:11.000Z,4.90
2022-11-16T03:20:11.000Z,4.87
2022-11-16T03:21:11.000Z,4.86
2022-11-16T03:22:11.000Z,4.84
2022-11-16T03:23:11.000Z,4.83
2022-11-16T03:24:11.000Z,4.84
2022-11-16T03:25:11.000Z,4.80
2022-11-16T03:26:11.000Z,4.75
2022-11-16T03:27:11.000Z,4.80
2022-11-16T03:28:11.000Z,4.79
2022-11-16T03:29:11.000Z,4.75
2022-11-16T03:30:11.000Z,4.80
2022-11-16T03:31:11.000Z,4.77
2022-11-16T03:32:11.000Z,4.79
2022-11-16T03:33:11.000Z,4.72
2022-11-16T03:34:11.000Z,4.72
2022-11-16T03:35:11.000Z,4.69
2022-11-16T03:36:11.000Z,4.69
2022-11-16T03:37:10.000Z,4.68
2022-11-16T03:38:10.000Z,4.68
2022-11-16T03:39:10.000Z,4.65
2022-11-16T03:40:10.000Z,4.69
2022-11-16T03:41:10.000Z,4.69
2022-11-16T03:42:10.000Z,4.68
2022-11-16T03:43:10.000Z,4.68
2022-11-16T03:44:10.000Z,4.71
2022-11-16T03:45:10.000Z,4.64
2022-11-16T03:46:10.000Z,4.68
2022-11-16T03:47:10.000Z,4.65
2022-11-16T03:48:10.000Z,4.61
2022-11-16T03:49:10.000Z,4.62
2022-11-16T03:50:10.000Z,4.62
2022-11-16T03:51:10.000Z,4.64
2022-11-16T03:52:10.000Z,4.62
2022-11-16T03:53:10.000Z,4.62
2022-11-16T03:54:10.000Z,4.65
2022-11-16T03:55:10.000Z,4.62
2022-11-16T03:56:10.000Z,4.65
2022-11-16T03:57:10.000Z,4.65
2022-11-16T03:58:10.000Z,4.69
2022-11-16T03:59:10.000Z,4.69
2022-11-16T04:00:10.000Z,4.71
2022-11-16T04:01:10.000Z,4.71
2022-11-16T04:02:10.000Z,4.68
2022-11-16T04:03:10.000Z,4.69
2022-11-16T04:04:10.000Z,4.69
2022-11-16T04:05:10.000Z,4.68
2022-11-16T04:06:10.000Z,4.69
2022-11-16T04:07:10.000Z,4.72
2022-11-16T04:08:10.000Z,4.69
2022-11-16T04:09:10.000Z,4.71
2022-11-16T04:10:10.000Z,4.74
2022-11-16T04:11:10.000Z,4.74
2022-11-16T04:12:10.000Z,4.72
2022-11-16T04:13:10.000Z,4.77
2022-11-16T04:14:10.000Z,4.75
2022-11-16T04:15:10.000Z,4.79
2022-11-16T04:16:10.000Z,4.72
2022-11-16T04:17:10.000Z,4.77
2022-11-16T04:18:10.000Z,4.77
2022-11-16T04:19:10.000Z,4.80
2022-11-16T04:20:10.000Z,4.75
2022-11-16T04:21:10.000Z,4.75
2022-11-16T04:22:10.000Z,4.71
2022-11-16T04:23:10.000Z,4.77
2022-11-16T04:24:10.000Z,4.77
2022-11-16T04:25:10.000Z,4.72
2022-11-16T04:26:10.000Z,4.71
2022-11-16T04:27:10.000Z,4.72
2022-11-16T04:28:10.000Z,4.72
2022-11-16T04:29:10.000Z,4.74
2022-11-16T04:30:10.000Z,4.72
2022-11-16T04:31:10.000Z,4.75
2022-11-16T04:32:10.000Z,4.77
2022-11-16T04:33:10.000Z,4.74
2022-11-16T04:34:10.000Z,4.69
2022-11-16T04:35:10.000Z,4.72
2022-11-16T04:36:10.000Z,4.74
2022-11-16T04:37:10.000Z,4.75
2022-11-16T04:38:10.000Z,4.72
2022-11-16T04:39:10.000Z,4.75
2022-11-16T04:40:10.000Z,4.79
2022-11-16T04:41:10.000Z,4.72
2022-11-16T04:42:10.000Z,4.74
2022-11-16T04:43:10.000Z,4.79
2022-11-16T04:44:10.000Z,4.75
2022-11-16T04:45:10.000Z,4.77
2022-11-16T04:46:10.000Z,4.75
2022-11-16T04:47:10.000Z,4.80
2022-11-16T04:48:10.000Z,4.80
2022-11-16T04:49:10.000Z,4.75
2022-11-16T04:50:10.000Z,4.79
2022-11-16T04:51:10.000Z,4.79
2022-11-16T04:52:09.000Z,4.79
2022-11-16T04:53:09.000Z,4.79
2022-11-16T04:54:09.000Z,4.74
2022-11-16T04:55:09.000Z,4.77
2022-11-16T04:56:09.000Z,4.79
2022-11-16T04:57:09.000Z,4.84
2022-11-16T04:58:09.000Z,4.84
2022-11-16T04:59:09.000Z,4.87
2022-11-16T05:00:09.000Z,4.86
2022-11-16T05:01:09.000Z,4.84
2022-11-16T05:02:09.000Z,4.87
2022-11-16T05:03:09.000Z,4.86
2022-11-16T05:04:09.000Z,4.90
2022-11-16T05:05:09.000Z,4.94
2022-11-16T05:06:09.000Z,4.88
2022-11-16T05:07:09.000Z,4.91
2022-11-16T05:08:09.000Z,4.97
2022-11-16T05:09:09.000Z,4.94
2022-11-16T05:10:09.000Z,4.96
2022-11-16T05:11:09.000Z,4.97
2022-11-16T05:12:09.000Z,5.02
2022-11-16T05:13:09.000Z,4.97
2022-11-16T05:14:09.000Z,5.04
2022-11-16T05:15:09.000Z,5.06
2022-11-16T05:16:09.000Z,5.02
2022-11-16T05:17:09.000Z,5.06
2022-11-16T05:18:09.000Z,5.05
2022-11-16T05:19:09.000Z,5.06
2022-11-16T05:20:09.000Z,5.05
2022-11-16T05:21:09.000Z,5.06
2022-11-16T05:22:09.000Z,5.08
2022-11-16T05:23:09.000Z,5.11
2022-11-16T05:24:09.000Z,5.11
2022-11-16T05:25:09.000Z,5.09
2022-11-16T05:26:09.000Z,5.09
2022-11-16T05:27:09.000Z,5.08
2022-11-16T05:28:09.000Z,5.09
2022-11-16T05:29:09.000Z,5.06
2022-11-16T05:30:09.000Z,5.14
2022-11-16T05:31:09.000Z,5.09
2022-11-16T05:32:09.000Z,5.11
2022-11-16T05:33:09.000Z,5.08
2022-11-16T05:34:09.000Z,5.14
2022-11-16T05:35:09.000Z,5.11
2022-11-16T05:36:09.000Z,5.08
2022-11-16T05:37:09.000Z,5.12
2022-11-16T05:38:09.000Z,5.14
2022-11-16T05:39:09.000Z,5.12
2022-11-16T05:40:09.000Z,5.14
2022-11-16T05:41:09.000Z,5.12
2022-11-16T05:42:09.000Z,5.11
2022-11-16T05:43:09.000Z,5.19
2022-11-16T05:44:09.000Z,5.11
2022-11-16T05:45:09.000Z,5.11
2022-11-16T05:46:09.000Z,5.11
2022-11-16T05:47:09.000Z,5.11
2022-11-16T05:48:09.000Z,5.17
2022-11-16T05:49:09.000Z,5.15
2022-11-16T05:50:09.000Z,5.12
2022-11-16T05:51:09.000Z,5.17
2022-11-16T05:52:09.000Z,5.19
2022-11-16T05:53:09.000Z,5.14
2022-11-16T05:54:09.000Z,5.19
2022-11-16T05:55:09.000Z,5.22
2022-11-16T05:56:09.000Z,5.15
2022-11-16T05:57:09.000Z,5.17
2022-11-16T05:58:09.000Z,5.15
2022-11-16T05:59:09.000Z,5.15
2022-11-16T06:00:09.000Z,5.17
2022-11-16T06:01:09.000Z,5.19
2022-11-16T06:02:09.000Z,5.20
2022-11-16T06:03:09.000Z,5.20
2022-11-16T06:04:09.000Z,5.22
2022-11-16T06:05:09.000Z,5.17
2022-11-16T06:06:09.000Z,5.17
2022-11-16T06:07:08.000Z,5.19
2022-11-16T06:08:08.000Z,5.22
2022-11-16T06:09:08.000Z,5.22
2022-11-16T06:10:08.000Z,5.23
2022-11-16T06:11:08.000Z,5.19
2022-11-16T06:12:08.000Z,5.26
2022-11-16T06:13:08.000Z,5.22
2022-11-16T06:14:08.000Z,5.19
2022-11-16T06:15:08.000Z,5.20
2022-11-16T06:16:08.000Z,5.19
2022-11-16T06:17:08.000Z,5.19
2022-11-16T06:18:08.000Z,5.17
2022-11-16T06:19:08.000Z,5.24
2022-11-16T06:20:08.000Z,5.19
2022-11-16T06:21:08.000Z,5.19
2022-11-16T06:22:08.000Z,5.22
2022-11-16T06:23:08.000Z,5.20
2022-11-16T06:24:08.000Z,5.20
2022-11-16T06:25:08.000Z,5.24
2022-11-16T06:26:08.000Z,5.17
2022-11-16T06:27:08.000Z,5.19
2022-11-16T06:28:08.000Z,5.19
2022-11-16T06:29:08.000Z,5.20
2022-11-16T06:30:08.000Z,5.20
2022-11-16T06:31:08.000Z,5.20
2022-11-16T06:32:08.000Z,5.20
2022-11-16T06:33:08.000Z,5.23
2022-11-16T06:34:08.000Z,5.20
2022-11-16T06:35:08.000Z,5.20
2022-11-16T06:36:08.000Z,5.20
2022-11-16T06:37:08.000Z,5.22
2022-11-16T06:38:08.000Z,5.22
2022-11-16T06:39:08.000Z,5.24
2022-11-16T06:40:08.000Z,5.23
2022-11-16T06:41:08.000Z,5.27
2022-11-16T06:42:08.000Z,5.23
2022-11-16T06:43:08.000Z,5.23
2022-11-16T06:44:08.000Z,5.23
2022-11-16T06:45:08.000Z,5.22
2022-11-16T06:46:08.000Z,5.24
2022-11-16T06:47:08.000Z,5.27
2022-11-16T06:48:08.000Z,5.33
2022-11-16T06:49:08.000Z,5.27
2022-11-16T06:50:08.000Z,5.30
2022-11-16T06:51:08.000Z,5.30
2022-11-16T06:52:08.000Z,5.27
2022-11-16T06:53:08.000Z,5.30
2022-11-16T06:54:08.000Z,5.32
2022-11-16T06:55:08.000Z,5.37
2022-11-16T06:56:08.000Z,5.32
2022-11-16T06:57:08.000Z,5.32
2022-11-16T06:58:08.000Z,5.33
2022-11-16T06:59:08.000Z,5.35
2022-11-16T07:00:08.000Z,5.35
2022-11-16T07:01:08.000Z,5.35
2022-11-16T07:02:08.000Z,5.38
2022-11-16T07:03:08.000Z,5.44
2022-11-16T07:04:08.000Z,5.35
2022-11-16T07:05:08.000Z,5.42
2022-11-16T07:06:08.000Z,5.42
2022-11-16T07:07:08.000Z,5.41
2022-11-16T07:08:08.000Z,5.44
2022-11-16T07:09:08.000Z,5.42
2022-11-16T07:10:08.000Z,5.41
2022-11-16T07:11:08.000Z,5.44
2022-11-16T07:12:08.000Z,5.45
2022-11-16T07:13:08.000Z,5.49
2022-11-16T07:14:08.000Z,5.45
2022-11-16T07:15:08.000Z,5.48
2022-11-16T07:16:08.000Z,5.47
2022-11-16T07:17:08.000Z,5.48
2022-11-16T07:18:08.000Z,5.52
2022-11-16T07:19:08.000Z,5.56
2022-11-16T07:20:08.000Z,5.51
2022-11-16T07:21:07.000Z,5.56
2022-11-16T07:22:07.000Z,5.55
2022-11-16T07:23:07.000Z,5.55
2022-11-16T07:24:07.000Z,5.56
2022-11-16T07:25:07.000Z,5.58
2022-11-16T07:26:07.000Z,5.63
2022-11-16T07:27:07.000Z,5.60
2022-11-16T07:28:07.000Z,5.60
2022-11-16T07:29:07.000Z,5.63
2022-11-16T07:30:07.000Z,5.65
2022-11-16T07:31:07.000Z,5.65
2022-11-16T07:32:07.000Z,5.67
2022-11-16T07:33:07.000Z,5.66
2022-11-16T07:34:07.000Z,5.69
2022-11-16T07:35:07.000Z,5.69
2022-11-16T07:36:07.000Z,5.67
2022-11-16T07:37:07.000Z,5.75
2022-11-16T07:38:07.000Z,5.77
2022-11-16T07:39:07.000Z,5.73
2022-11-16T07:40:07.000Z,5.80
2022-11-16T07:41:07.000Z,5.78
2022-11-16T07:41:07.000Z,5.78
2022-11-16T07:42:07.000Z,5.78
2022-11-16T07:42:07.000Z,5.78
2022-11-16T07:43:07.000Z,5.84
2022-11-16T07:43:07.000Z,5.84
2022-11-16T07:44:07.000Z,5.81
2022-11-16T07:44:07.000Z,5.81
2022-11-16T07:45:07.000Z,5.83
2022-11-16T07:45:07.000Z,5.83
2022-11-16T07:46:07.000Z,5.80
2022-11-16T07:47:07.000Z,5.88
2022-11-16T07:48:07.000Z,5.87
2022-11-16T07:49:07.000Z,5.90
2022-11-16T07:50:07.000Z,5.87
2022-11-16T07:51:07.000Z,5.95
2022-11-16T07:52:07.000Z,5.95
2022-11-16T07:53:07.000Z,5.98
2022-11-16T07:54:07.000Z,5.93
2022-11-16T07:55:07.000Z,5.96
2022-11-16T07:56:07.000Z,5.95
2022-11-16T07:57:07.000Z,5.96
2022-11-16T07:58:07.000Z,5.96
2022-11-16T07:59:07.000Z,5.98
2022-11-16T08:00:07.000Z,5.98
2022-11-16T08:01:07.000Z,6.01
2022-11-16T08:02:07.000Z,6.01
2022-11-16T08:03:07.000Z,6.05
2022-11-16T08:04:07.000Z,6.03
2022-11-16T08:05:07.000Z,6.05
2022-11-16T08:06:07.000Z,6.03
2022-11-16T08:07:07.000Z,6.10
2022-11-16T08:08:07.000Z,6.11
2022-11-16T08:09:07.000Z,6.08
2022-11-16T08:10:07.000Z,6.14
2022-11-16T08:11:07.000Z,6.11
2022-11-16T08:12:07.000Z,6.16
2022-11-16T08:13:07.000Z,6.16
2022-11-16T08:14:07.000Z,6.16
2022-11-16T08:15:07.000Z,6.16
2022-11-16T08:16:07.000Z,6.17
2022-11-16T08:17:07.000Z,6.20
2022-11-16T08:18:07.000Z,6.21
2022-11-16T08:19:07.000Z,6.27
2022-11-16T08:20:07.000Z,6.21
2022-11-16T08:21:07.000Z,6.28
2022-11-16T08:22:07.000Z,6.27
2022-11-16T08:23:07.000Z,6.27
2022-11-16T08:24:07.000Z,6.32
2022-11-16T08:25:07.000Z,6.33
2022-11-16T08:26:07.000Z,6.38
2022-11-16T08:27:07.000Z,6.36
2022-11-16T08:28:07.000Z,6.35
2022-11-16T08:29:07.000Z,6.36
2022-11-16T08:30:07.000Z,6.38
2022-11-16T08:31:07.000Z,6.39
2022-11-16T08:32:07.000Z,6.40
2022-11-16T08:33:07.000Z,6.42
2022-11-16T08:34:07.000Z,6.39
2022-11-16T08:35:06.000Z,6.43
2022-11-16T08:36:06.000Z,6.43
2022-11-16T08:37:06.000Z,6.46
2022-11-16T08:38:06.000Z,6.46
2022-11-16T08:39:06.000Z,6.43
2022-11-16T08:40:06.000Z,6.54
2022-11-16T08:41:06.000Z,6.46
2022-11-16T08:42:06.000Z,6.55
2022-11-16T08:43:06.000Z,6.51
2022-11-16T08:44:06.000Z,6.55
2022-11-16T08:45:06.000Z,6.54
2022-11-16T08:46:06.000Z,6.58
2022-11-16T08:47:06.000Z,6.63
2022-11-16T08:48:06.000Z,6.60
2022-11-16T08:49:06.000Z,6.63
2022-11-16T08:50:06.000Z,6.69
2022-11-16T08:51:06.000Z,6.71
2022-11-16T08:52:06.000Z,6.68
2022-11-16T08:53:06.000Z,6.75
2022-11-16T08:54:06.000Z,6.73
2022-11-16T08:55:06.000Z,6.78
2022-11-16T08:56:06.000Z,6.75
2022-11-16T08:57:06.000Z,6.78
2022-11-16T08:58:06.000Z,6.83
2022-11-16T08:59:06.000Z,6.82
2022-11-16T09:00:06.000Z,6.81
2022-11-16T09:01:06.000Z,6.83
2022-11-16T09:02:06.000Z,6.89
2022-11-16T09:03:06.000Z,6.87
2022-11-16T09:04:06.000Z,6.87
2022-11-16T09:05:06.000Z,6.89
2022-11-16T09:06:06.000Z,6.94
2022-11-16T09:07:06.000Z,6.91
2022-11-16T09:08:06.000Z,6.91
2022-11-16T09:09:06.000Z,6.91
2022-11-16T09:10:06.000Z,6.93
2022-11-16T09:11:06.000Z,6.94
2022-11-16T09:12:06.000Z,6.93
2022-11-16T09:13:06.000Z,6.94
2022-11-16T09:14:06.000Z,6.97
2022-11-16T09:15:06.000Z,6.97
2022-11-16T09:16:06.000Z,6.96
2022-11-16T09:17:06.000Z,6.99
2022-11-16T09:18:06.000Z,6.99
2022-11-16T09:19:06.000Z,7.00
2022-11-16T09:20:06.000Z,6.99
2022-11-16T09:21:06.000Z,7.04
2022-11-16T09:22:06.000Z,7.07
2022-11-16T09:23:06.000Z,7.01
2022-11-16T09:24:06.000Z,6.99
2022-11-16T09:25:06.000Z,7.07
2022-11-16T09:26:06.000Z,7.09
2022-11-16T09:26:06.000Z,7.09
2022-11-16T09:27:06.000Z,7.05
2022-11-16T09:27:06.000Z,7.05
2022-11-16T09:28:06.000Z,7.08
2022-11-16T09:28:06.000Z,7.08
2022-11-16T09:29:06.000Z,7.08
2022-11-16T09:29:06.000Z,7.08
2022-11-16T09:30:06.000Z,7.12
2022-11-16T09:30:06.000Z,7.12
2022-11-16T09:31:06.000Z,7.11
2022-11-16T09:32:06.000Z,7.14
2022-11-16T09:33:06.000Z,7.09
2022-11-16T09:34:06.000Z,7.11
2022-11-16T09:35:06.000Z,7.11
2022-11-16T09:36:06.000Z,7.14
2022-11-16T09:37:06.000Z,7.11
2022-11-16T09:38:06.000Z,7.16
2022-11-16T09:39:06.000Z,7.15
2022-11-16T09:40:06.000Z,7.14
2022-11-16T09:41:06.000Z,7.14
2022-11-16T09:42:06.000Z,7.14
2022-11-16T09:43:06.000Z,7.18
2022-11-16T09:44:06.000Z,7.21
2022-11-16T09:45:06.000Z,7.18
2022-11-16T09:46:06.000Z,7.23
2022-11-16T09:47:06.000Z,7.18
2022-11-16T09:48:05.000Z,7.23
2022-11-16T09:49:05.000Z,7.24
2022-11-16T09:50:05.000Z,7.24
2022-11-16T09:51:05.000Z,7.24
2022-11-16T09:51:05.000Z,7.24
2022-11-16T09:52:05.000Z,7.23
2022-11-16T09:52:05.000Z,7.23
2022-11-16T09:53:05.000Z,7.24
2022-11-16T09:53:05.000Z,7.24
2022-11-16T09:54:05.000Z,7.21
2022-11-16T09:54:05.000Z,7.21
2022-11-16T09:55:05.000Z,7.24
2022-11-16T09:55:05.000Z,7.24
2022-11-16T09:56:05.000Z,7.27
2022-11-16T09:57:05.000Z,7.19
2022-11-16T09:58:05.000Z,7.24
2022-11-16T09:59:05.000Z,7.19
2022-11-16T10:00:05.000Z,7.19
2022-11-16T10:01:05.000Z,7.24
2022-11-16T10:02:05.000Z,7.24
2022-11-16T10:03:05.000Z,7.24
2022-11-16T10:04:05.000Z,7.24
2022-11-16T10:05:05.000Z,7.27
2022-11-16T10:06:05.000Z,7.33
2022-11-16T10:07:05.000Z,7.29
2022-11-16T10:08:05.000Z,7.34
2022-11-16T10:09:05.000Z,7.33
2022-11-16T10:10:05.000Z,7.30
2022-11-16T10:11:05.000Z,7.34
2022-11-16T10:12:05.000Z,7.36
2022-11-16T10:13:05.000Z,7.37
2022-11-16T10:14:05.000Z,7.37
2022-11-16T10:15:05.000Z,7.39
2022-11-16T10:16:05.000Z,7.45
2022-11-16T10:17:05.000Z,7.47
2022-11-16T10:18:05.000Z,7.44
2022-11-16T10:19:05.000Z,7.44
2022-11-16T10:20:05.000Z,7.44
2022-11-16T10:21:05.000Z,7.41
2022-11-16T10:22:05.000Z,7.42
2022-11-16T10:23:05.000Z,7.48
2022-11-16T10:24:05.000Z,7.45
2022-11-16T10:25:05.000Z,7.48
2022-11-16T10:26:05.000Z,7.42
2022-11-16T10:27:05.000Z,7.45
2022-11-16T10:28:05.000Z,7.42
2022-11-16T10:29:05.000Z,7.44
2022-11-16T10:30:05.000Z,7.44
2022-11-16T10:31:05.000Z,7.47
2022-11-16T10:32:05.000Z,7.41
2022-11-16T10:33:05.000Z,7.44
2022-11-16T10:34:05.000Z,7.42
2022-11-16T10:35:05.000Z,7.42
2022-11-16T10:36:05.000Z,7.42
2022-11-16T10:37:05.000Z,7.41
2022-11-16T10:38:05.000Z,7.42
2022-11-16T10:39:05.000Z,7.39
2022-11-16T10:40:05.000Z,7.44
2022-11-16T10:41:05.000Z,7.41
2022-11-16T10:42:05.000Z,7.44
2022-11-16T10:43:05.000Z,7.44
2022-11-16T10:44:05.000Z,7.50
2022-11-16T10:45:05.000Z,7.51
2022-11-16T10:46:05.000Z,7.52
2022-11-16T10:47:05.000Z,7.51
2022-11-16T10:48:05.000Z,7.54
2022-11-16T10:49:05.000Z,7.55
2022-11-16T10:50:05.000Z,7.55
2022-11-16T10:51:05.000Z,7.57
2022-11-16T10:52:05.000Z,7.55
2022-11-16T10:53:05.000Z,7.58
2022-11-16T10:54:05.000Z,7.58
2022-11-16T10:55:05.000Z,7.57
2022-11-16T10:56:05.000Z,7.54
2022-11-16T10:57:05.000Z,7.54
2022-11-16T10:58:05.000Z,7.55
2022-11-16T10:59:05.000Z,7.52
2022-11-16T11:00:05.000Z,7.57
2022-11-16T11:01:04.000Z,7.54
2022-11-16T11:02:04.000Z,7.54
2022-11-16T11:03:04.000Z,7.50
2022-11-16T11:04:04.000Z,7.51
2022-11-16T11:05:04.000Z,7.52
2022-11-16T11:06:04.000Z,7.52
2022-11-16T11:07:04.000Z,7.50
2022-11-16T11:08:04.000Z,7.57
2022-11-16T11:09:04.000Z,7.54
2022-11-16T11:10:04.000Z,7.55
2022-11-16T11:11:04.000Z,7.55
2022-11-16T11:12:04.000Z,7.54
2022-11-16T11:13:04.000Z,7.57
2022-11-16T11:14:04.000Z,7.54
2022-11-16T11:15:04.000Z,7.55
2022-11-16T11:16:04.000Z,7.58
2022-11-16T11:17:04.000Z,7.52
2022-11-16T11:18:04.000Z,7.58
2022-11-16T11:19:04.000Z,7.55
2022-11-16T11:20:04.000Z,7.62
2022-11-16T11:21:04.000Z,7.66
2022-11-16T11:22:04.000Z,7.58
2022-11-16T11:23:04.000Z,7.60
2022-11-16T11:24:04.000Z,7.66
2022-11-16T11:25:04.000Z,7.67
2022-11-16T11:26:04.000Z,7.67
2022-11-16T11:27:04.000Z,7.69
2022-11-16T11:28:04.000Z,7.71
2022-11-16T11:29:04.000Z,7.69
2022-11-16T11:30:04.000Z,7.71
2022-11-16T11:31:04.000Z,7.76
2022-11-16T11:32:04.000Z,7.71
2022-11-16T11:33:04.000Z,7.71
2022-11-16T11:34:04.000Z,7.73
2022-11-16T11:35:04.000Z,7.71
2022-11-16T11:36:04.000Z,7.71
2022-11-16T11:37:04.000Z,7.71
2022-11-16T11:38:04.000Z,7.71
2022-11-16T11:39:04.000Z,7.73
2022-11-16T11:40:04.000Z,7.73
2022-11-16T11:41:04.000Z,7.73
2022-11-16T11:42:04.000Z,7.76
2022-11-16T11:43:04.000Z,7.74
2022-11-16T11:44:04.000Z,7.74
2022-11-16T11:45:04.000Z,7.76
2022-11-16T11:46:04.000Z,7.77
2022-11-16T11:47:04.000Z,7.77
2022-11-16T11:48:04.000Z,7.81
2022-11-16T11:49:04.000Z,7.82
2022-11-16T11:50:04.000Z,7.81
2022-11-16T11:51:04.000Z,7.84
2022-11-16T11:52:04.000Z,7.84
2022-11-16T11:53:04.000Z,7.82
2022-11-16T11:54:04.000Z,7.77
2022-11-16T11:55:04.000Z,7.81
2022-11-16T11:56:04.000Z,7.79
2022-11-16T11:57:04.000Z,7.84
2022-11-16T11:58:04.000Z,7.85
2022-11-16T11:59:04.000Z,7.79
2022-11-16T12:00:04.000Z,7.81
2022-11-16T12:01:04.000Z,7.86
2022-11-16T12:02:04.000Z,7.89
2022-11-16T12:03:04.000Z,7.91
2022-11-16T12:04:04.000Z,7.91
2022-11-16T12:05:04.000Z,7.88
2022-11-16T12:06:04.000Z,7.91
2022-11-16T12:07:04.000Z,7.94
2022-11-16T12:08:04.000Z,7.92
2022-11-16T12:09:04.000Z,7.91
2022-11-16T12:10:04.000Z,7.92
2022-11-16T12:11:04.000Z,7.91
2022-11-16T12:12:04.000Z,7.91
2022-11-16T12:13:04.000Z,7.94
2022-11-16T12:14:03.000Z,7.94
2022-11-16T12:15:03.000Z,7.92
2022-11-16T12:16:03.000Z,7.91
2022-11-16T12:17:03.000Z,7.91
2022-11-16T12:18:03.000Z,7.89
2022-11-16T12:19:03.000Z,7.94
2022-11-16T12:20:03.000Z,7.95
2022-11-16T12:21:03.000Z,7.94
2022-11-16T12:22:03.000Z,7.99
2022-11-16T12:23:03.000Z,7.96
2022-11-16T12:24:03.000Z,7.94
2022-11-16T12:25:03.000Z,7.91
2022-11-16T12:26:03.000Z,7.92
2022-11-16T12:27:03.000Z,7.89
2022-11-16T12:28:03.000Z,7.88
2022-11-16T12:29:03.000Z,7.89
2022-11-16T12:30:03.000Z,7.88
2022-11-16T12:31:03.000Z,7.88
2022-11-16T12:32:03.000Z,7.91
2022-11-16T12:33:03.000Z,7.89
2022-11-16T12:34:03.000Z,7.82
2022-11-16T12:35:03.000Z,7.84
2022-11-16T12:36:03.000Z,7.84
2022-11-16T12:37:03.000Z,7.82
2022-11-16T12:38:03.000Z,7.82
2022-11-16T12:39:03.000Z,7.82
2022-11-16T12:40:03.000Z,7.79
2022-11-16T12:41:03.000Z,7.79
2022-11-16T12:42:03.000Z,7.77
2022-11-16T12:43:03.000Z,7.77
2022-11-16T12:44:03.000Z,7.77
2022-11-16T12:45:03.000Z,7.73
2022-11-16T12:46:03.000Z,7.77
2022-11-16T12:47:03.000Z,7.74
2022-11-16T12:48:03.000Z,7.74
2022-11-16T12:49:03.000Z,7.73
2022-11-16T12:50:03.000Z,7.73
2022-11-16T12:51:03.000Z,7.71
2022-11-16T12:52:03.000Z,7.73
2022-11-16T12:53:03.000Z,7.71
2022-11-16T12:54:03.000Z,7.71
2022-11-16T12:55:03.000Z,7.70
2022-11-16T12:56:03.000Z,7.70
2022-11-16T12:57:03.000Z,7.69
2022-11-16T12:58:03.000Z,7.69
2022-11-16T12:59:03.000Z,7.69
2022-11-16T13:00:03.000Z,7.70
2022-11-16T13:01:03.000Z,7.67
2022-11-16T13:02:03.000Z,7.63
2022-11-16T13:03:03.000Z,7.63